Time;durP1;ratioP1;P1;durP2;ratioP2;P2;SDS_P1;SDS_P2;PMS_P1;PMS_P2;Temp;Humidity;BMP_temperature;BMP_pressure;BME280_temperature;BME280_humidity;BME280_pressure;Samples;Min_cycle;Max_cycle;Signal;HPM_P1;HPM_P2
2022/07/13 00:00:54;;;;;;;1.08;0.50;;;;;;;15.73;81.24;96643.50;5019352;28;24459;-74
2022/07/13 00:03:21;;;;;;;2.80;0.60;;;;;;;15.66;80.98;96649.25;5031157;28;24531;-74
2022/07/13 00:05:47;;;;;;;1.55;0.85;;;;;;;15.50;82.36;96641.59;5022764;28;24436;-74
2022/07/13 00:08:13;;;;;;;1.60;0.57;;;;;;;15.42;82.90;96646.50;5027545;28;24500;-74
2022/07/13 00:10:40;;;;;;;1.33;0.85;;;;;;;15.38;83.10;96647.66;5020716;28;25004;-74
2022/07/13 00:13:06;;;;;;;1.90;0.80;;;;;;;15.37;83.68;96648.59;5027676;28;24439;-74
2022/07/13 00:15:34;;;;;;;0.90;0.63;;;;;;;15.29;85.17;96648.28;5026761;28;24442;-73
2022/07/13 00:18:01;;;;;;;2.50;0.80;;;;;;;15.30;85.23;96647.34;5027349;28;24988;-74
2022/07/13 00:20:28;;;;;;;1.37;1.10;;;;;;;15.28;85.63;96643.97;5016343;28;24452;-74
2022/07/13 00:22:55;;;;;;;2.55;1.05;;;;;;;15.19;87.25;96642.84;5023721;28;24630;-74
2022/07/13 00:25:21;;;;;;;1.23;1.00;;;;;;;15.15;87.53;96644.81;5023438;28;24474;-74
2022/07/13 00:27:48;;;;;;;1.00;0.77;;;;;;;15.13;88.19;96643.25;5027471;28;24443;-74
2022/07/13 00:30:14;;;;;;;1.35;0.68;;;;;;;15.19;87.73;96642.84;5022384;28;24433;-74
2022/07/13 00:32:42;;;;;;;1.13;0.75;;;;;;;15.26;86.96;96649.31;5028702;28;24448;-74
2022/07/13 00:35:09;;;;;;;1.40;0.90;;;;;;;15.32;86.52;96648.09;5028683;28;24447;-74
2022/07/13 00:37:35;;;;;;;1.17;0.65;;;;;;;15.36;85.93;96646.94;5023822;28;25028;-74
2022/07/13 00:40:02;;;;;;;1.60;0.70;;;;;;;15.42;84.77;96643.88;5017537;28;24455;-74
2022/07/13 00:42:28;;;;;;;1.10;0.75;;;;;;;15.35;84.74;96643.50;5018233;28;24446;-74
2022/07/13 00:44:54;;;;;;;1.40;0.70;;;;;;;15.27;85.07;96647.53;5021933;28;24450;-74
2022/07/13 00:47:21;;;;;;;2.58;0.70;;;;;;;15.28;84.60;96643.97;5024639;28;24439;-74
2022/07/13 00:49:49;;;;;;;1.00;0.90;;;;;;;15.38;84.88;96637.19;5018129;28;24436;-74
2022/07/13 00:52:16;;;;;;;0.90;0.73;;;;;;;15.13;85.94;96636.28;5027510;28;24502;-74
2022/07/13 00:54:44;;;;;;;1.43;0.80;;;;;;;14.89;86.91;96636.13;5030193;28;24494;-74
2022/07/13 00:57:14;;;;;;;1.03;0.77;;;;;;;14.73;88.94;96633.69;5021746;28;24470;-74
2022/07/13 00:59:40;;;;;;;2.53;0.82;;;;;;;14.66;89.40;96637.63;5021246;28;24519;-74
2022/07/13 01:02:07;;;;;;;1.38;0.88;;;;;;;14.63;89.10;96626.56;5029983;28;24467;-74
2022/07/13 01:04:33;;;;;;;1.35;0.70;;;;;;;14.64;88.70;96626.47;5029858;28;24439;-74
2022/07/13 01:07:01;;;;;;;1.30;0.75;;;;;;;14.72;87.47;96628.56;5029480;28;25024;-74
2022/07/13 01:09:28;;;;;;;0.90;0.70;;;;;;;14.62;87.75;96630.94;5027941;28;24443;-74
2022/07/13 01:11:54;;;;;;;2.63;0.70;;;;;;;14.65;88.00;96628.16;5026180;28;25020;-74
2022/07/13 01:14:22;;;;;;;1.05;0.70;;;;;;;14.64;89.92;96623.03;5030010;28;24439;-74
2022/07/13 01:16:48;;;;;;;1.75;0.90;;;;;;;14.58;90.92;96610.41;5025992;28;24439;-74
2022/07/13 01:19:15;;;;;;;1.23;0.90;;;;;;;14.55;91.38;96611.44;5020419;28;24489;-76
2022/07/13 01:21:44;;;;;;;2.67;1.10;;;;;;;14.58;91.47;96607.81;5029153;28;24500;-76
2022/07/13 01:24:13;;;;;;;1.83;0.90;;;;;;;14.59;91.16;96612.91;5023331;28;24435;-75
2022/07/13 01:26:40;;;;;;;3.05;0.80;;;;;;;14.70;90.42;96614.81;5014117;28;24436;-75
2022/07/13 01:29:07;;;;;;;1.13;0.70;;;;;;;14.79;90.18;96611.56;5029900;28;24493;-76
2022/07/13 01:31:34;;;;;;;2.00;0.90;;;;;;;14.76;88.34;96617.03;5028123;28;24768;-76
2022/07/13 01:34:01;;;;;;;1.42;0.80;;;;;;;14.75;89.32;96608.34;5025679;28;24522;-76
2022/07/13 01:36:28;;;;;;;1.55;0.63;;;;;;;14.58;91.22;96611.25;5019412;28;24438;-76
2022/07/13 01:38:55;;;;;;;2.47;0.90;;;;;;;14.49;91.96;96606.56;5024132;28;24478;-75
2022/07/13 01:41:24;;;;;;;1.48;0.63;;;;;;;14.50;92.66;96613.50;5029264;28;24460;-76
2022/07/13 01:43:50;;;;;;;1.15;0.70;;;;;;;14.49;92.93;96606.56;5026774;28;24444;-76
2022/07/13 01:46:17;;;;;;;1.50;0.77;;;;;;;14.54;92.60;96609.78;5014405;28;24436;-76
2022/07/13 01:48:44;;;;;;;0.80;0.70;;;;;;;14.57;92.00;96611.31;5024318;28;24466;-76
2022/07/13 01:51:10;;;;;;;1.20;0.70;;;;;;;14.55;91.94;96606.22;5027345;28;24486;-76
2022/07/13 01:53:37;;;;;;;1.33;0.60;;;;;;;14.57;92.27;96608.72;5019341;28;24439;-76
2022/07/13 01:56:03;;;;;;;0.98;0.70;;;;;;;14.41;94.20;96609.69;5025256;28;24435;-75
2022/07/13 01:58:31;;;;;;;1.92;0.90;;;;;;;14.42;94.09;96602.69;5023101;28;24436;-76
2022/07/13 02:00:58;;;;;;;2.10;0.82;;;;;;;14.41;94.11;96599.25;5025658;28;25017;-76
2022/07/13 02:03:24;;;;;;;1.20;0.90;;;;;;;14.43;93.99;96594.78;5015544;28;24503;-76
2022/07/13 02:05:51;;;;;;;1.20;0.88;;;;;;;14.58;92.89;96599.97;5023892;28;25004;-76
2022/07/13 02:08:17;;;;;;;1.20;0.80;;;;;;;14.57;91.90;96599.13;5023970;28;24428;-75
2022/07/13 02:10:44;;;;;;;1.05;0.90;;;;;;;14.42;93.29;96593.09;5012643;28;24437;-76
2022/07/13 02:13:12;;;;;;;0.70;0.68;;;;;;;14.33;94.06;96588.50;5016736;28;24440;-76
2022/07/13 02:15:40;;;;;;;1.50;0.80;;;;;;;14.30;94.96;96588.69;5017844;28;24460;-76
2022/07/13 02:18:07;;;;;;;1.35;0.75;;;;;;;14.29;94.48;96590.47;5021651;28;24435;-76
2022/07/13 02:20:36;;;;;;;1.67;0.68;;;;;;;14.34;93.66;96584.94;5022616;28;24508;-75
2022/07/13 02:23:02;;;;;;;1.80;1.10;;;;;;;14.32;93.56;96579.03;5016392;28;24985;-76
2022/07/13 02:25:29;;;;;;;0.90;0.82;;;;;;;14.22;95.14;96575.34;5027123;28;25001;-76
2022/07/13 02:27:55;;;;;;;1.90;0.90;;;;;;;14.16;94.71;96570.50;5026848;28;24439;-75
2022/07/13 02:30:22;;;;;;;1.08;0.98;;;;;;;14.09;95.31;96566.63;5019547;28;24440;-76
2022/07/13 02:32:50;;;;;;;1.20;0.90;;;;;;;14.16;93.73;96565.28;5017483;28;24826;-76
2022/07/13 02:35:16;;;;;;;0.80;0.70;;;;;;;14.10;93.72;96561.31;5021636;28;24798;-75
2022/07/13 02:37:43;;;;;;;1.35;1.00;;;;;;;14.20;91.40;96564.16;5028068;28;24439;-76
2022/07/13 02:40:12;;;;;;;1.02;0.60;;;;;;;14.09;92.79;96559.66;5024161;28;24435;-76
2022/07/13 02:42:38;;;;;;;1.00;0.90;;;;;;;13.97;94.10;96560.44;5012409;28;24464;-76
2022/07/13 02:45:06;;;;;;;0.98;0.70;;;;;;;13.89;94.78;96560.09;5021352;28;24462;-76
2022/07/13 02:47:33;;;;;;;0.82;0.73;;;;;;;13.90;95.55;96559.16;5027644;28;24988;-76
2022/07/13 02:50:01;;;;;;;1.48;0.90;;;;;;;13.91;96.09;96560.84;5024785;28;24994;-76
2022/07/13 02:52:27;;;;;;;1.75;0.90;;;;;;;13.97;95.69;96555.22;5012689;28;24982;-76
2022/07/13 02:54:54;;;;;;;3.22;1.00;;;;;;;13.99;94.02;96555.97;5018716;28;24436;-76
2022/07/13 02:57:20;;;;;;;1.15;0.77;;;;;;;14.03;93.61;96557.44;5028575;28;24451;-76
2022/07/13 02:59:46;;;;;;;0.80;0.80;;;;;;;13.92;94.77;96557.28;5021340;28;24439;-76
2022/07/13 03:02:13;;;;;;;3.00;0.87;;;;;;;13.72;95.37;96554.19;5020279;28;25020;-76
2022/07/13 03:04:40;;;;;;;1.90;1.00;;;;;;;13.65;96.40;96550.28;5024113;28;24436;-76
2022/07/13 03:07:08;;;;;;;2.50;0.80;;;;;;;13.62;99.49;96552.25;5023852;28;25016;-75
2022/07/13 03:09:34;;;;;;;1.10;1.00;;;;;;;13.67;98.85;96565.81;5020541;28;25028;-76
2022/07/13 03:12:00;;;;;;;1.20;0.85;;;;;;;13.75;99.03;96566.16;5027178;28;24436;-75
2022/07/13 03:14:27;;;;;;;1.70;1.00;;;;;;;13.79;98.46;96558.06;5025206;28;24517;-75
2022/07/13 03:16:53;;;;;;;3.65;0.93;;;;;;;13.83;97.66;96558.72;5028017;28;24440;-75
2022/07/13 03:19:20;;;;;;;1.58;0.88;;;;;;;13.82;97.44;96556.19;5021488;28;24555;-76
2022/07/13 03:21:46;;;;;;;1.08;0.90;;;;;;;13.78;96.12;96558.16;5026978;28;24466;-76
2022/07/13 03:24:14;;;;;;;1.35;0.90;;;;;;;13.74;96.02;96554.06;5027961;28;24443;-75
2022/07/13 03:26:40;;;;;;;2.17;1.23;;;;;;;13.75;95.70;96551.38;5025228;28;24442;-76
2022/07/13 03:29:07;;;;;;;0.93;0.73;;;;;;;13.70;95.75;96555.22;5023735;28;24432;-75
2022/07/13 03:31:33;;;;;;;1.15;0.90;;;;;;;13.51;98.32;96556.34;5026125;28;24439;-76
2022/07/13 03:34:00;;;;;;;1.02;0.70;;;;;;;13.42;99.13;96553.47;5032383;28;24443;-76
2022/07/13 03:36:26;;;;;;;3.55;1.10;;;;;;;13.39;98.29;96546.72;5029494;28;24438;-75
2022/07/13 03:38:53;;;;;;;1.35;0.80;;;;;;;13.36;98.15;96539.09;5025761;28;24486;-75
2022/07/13 03:41:20;;;;;;;1.00;0.80;;;;;;;13.33;99.27;96539.28;5022765;28;24995;-76
2022/07/13 03:43:47;;;;;;;0.77;0.60;;;;;;;13.36;98.50;96544.28;5025360;28;24435;-76
2022/07/13 03:46:13;;;;;;;1.23;0.88;;;;;;;13.37;98.69;96539.91;5031339;28;24440;-76
2022/07/13 03:48:40;;;;;;;1.38;0.90;;;;;;;13.41;98.76;96536.19;5023471;28;24441;-76
2022/07/13 03:51:06;;;;;;;1.20;0.80;;;;;;;13.42;99.01;96540.47;5028912;28;24908;-75
2022/07/13 03:53:33;;;;;;;0.80;0.80;;;;;;;13.43;99.63;96537.78;5021065;28;24502;-76
2022/07/13 03:55:59;;;;;;;1.45;0.90;;;;;;;13.43;98.62;96536.94;5023192;28;24448;-75
2022/07/13 03:58:27;;;;;;;1.80;0.90;;;;;;;13.41;99.13;96542.22;5027661;28;24448;-76
2022/07/13 04:00:53;;;;;;;1.10;0.88;;;;;;;13.47;99.00;96544.47;5026989;28;24439;-76
2022/07/13 04:03:20;;;;;;;1.05;0.75;;;;;;;13.51;98.92;96542.50;5029455;28;24440;-76
2022/07/13 04:05:46;;;;;;;1.10;0.60;;;;;;;13.56;98.38;96536.06;5027471;28;24444;-76
2022/07/13 04:08:13;;;;;;;1.33;0.80;;;;;;;13.59;98.45;96529.84;5025506;28;24551;-76
2022/07/13 04:10:39;;;;;;;1.40;0.73;;;;;;;13.64;97.00;96529.56;5035075;28;24443;-76
2022/07/13 04:13:06;;;;;;;2.10;0.80;;;;;;;13.62;96.18;96528.81;5028159;28;24807;-77
2022/07/13 04:15:34;;;;;;;2.05;0.80;;;;;;;13.55;96.25;96515.34;5029275;28;24440;-76
2022/07/13 04:18:00;;;;;;;2.15;1.05;;;;;;;13.69;95.63;96511.91;5026457;28;24526;-76
2022/07/13 04:20:26;;;;;;;1.85;1.00;;;;;;;13.57;96.33;96503.06;5017912;28;24437;-76
2022/07/13 04:22:53;;;;;;;1.58;1.17;;;;;;;13.47;97.64;96500.22;5027357;28;24456;-76
2022/07/13 04:25:19;;;;;;;1.23;0.90;;;;;;;13.24;100.00;96504.25;5026632;28;24446;-76
2022/07/13 04:27:46;;;;;;;1.20;0.98;;;;;;;13.26;100.00;96499.78;5026139;28;24444;-76
2022/07/13 04:30:12;;;;;;;1.60;0.98;;;;;;;13.33;100.00;96513.25;5024575;28;24448;-76
2022/07/13 04:32:40;;;;;;;1.92;1.17;;;;;;;13.54;100.00;96508.50;5016797;28;24796;-76
2022/07/13 04:35:07;;;;;;;2.53;0.85;;;;;;;13.66;100.00;96505.09;5019257;28;24432;-76
2022/07/13 04:37:35;;;;;;;7.10;1.38;;;;;;;13.61;100.00;96501.97;5021055;28;24498;-76
2022/07/13 04:40:01;;;;;;;1.48;0.80;;;;;;;13.52;100.00;96503.38;5026056;28;24439;-76
2022/07/13 04:42:28;;;;;;;1.13;0.80;;;;;;;13.63;100.00;96509.66;5026285;28;24467;-76
2022/07/13 04:44:54;;;;;;;1.55;0.90;;;;;;;13.79;100.00;96511.22;5024120;28;24443;-76
2022/07/13 04:47:21;;;;;;;1.60;1.00;;;;;;;13.98;100.00;96510.03;5020319;28;24448;-76
2022/07/13 04:49:48;;;;;;;1.40;1.20;;;;;;;14.14;100.00;96507.25;5031395;28;24435;-76
2022/07/13 04:52:15;;;;;;;1.40;1.20;;;;;;;14.21;99.85;96514.56;5026116;28;24444;-76
2022/07/13 04:54:41;;;;;;;1.95;1.20;;;;;;;14.33;99.31;96512.94;5020656;28;24452;-76
2022/07/13 04:57:08;;;;;;;4.47;1.10;;;;;;;14.41;99.13;96507.22;5024223;28;24537;-76
2022/07/13 04:59:34;;;;;;;1.42;1.13;;;;;;;14.56;99.45;96516.66;5023900;28;24524;-76
2022/07/13 05:02:01;;;;;;;2.10;1.20;;;;;;;14.76;98.75;96512.72;5030016;28;24822;-76
2022/07/13 05:04:27;;;;;;;1.88;1.10;;;;;;;14.86;98.37;96518.13;5020968;28;24835;-75
2022/07/13 05:06:55;;;;;;;1.67;1.20;;;;;;;14.97;97.76;96520.84;5023127;28;24803;-76
2022/07/13 05:09:21;;;;;;;1.85;1.05;;;;;;;14.98;94.35;96520.75;5019996;28;24439;-76
2022/07/13 05:11:48;;;;;;;1.45;0.70;;;;;;;14.96;93.92;96524.41;5018239;28;24436;-76
2022/07/13 05:14:14;;;;;;;1.87;0.93;;;;;;;14.85;93.29;96522.50;5021064;28;24830;-76
2022/07/13 05:16:41;;;;;;;1.80;0.93;;;;;;;15.04;93.62;96529.09;5020621;28;24993;-76
2022/07/13 05:19:07;;;;;;;0.90;0.80;;;;;;;15.31;92.89;96523.72;5020979;28;24463;-76
2022/07/13 05:21:34;;;;;;;1.50;0.77;;;;;;;15.58;93.30;96521.81;5023473;28;24464;-76
2022/07/13 05:24:02;;;;;;;1.10;0.70;;;;;;;15.78;89.79;96517.78;5020751;28;24436;-76
2022/07/13 05:26:28;;;;;;;1.00;0.80;;;;;;;16.00;86.92;96517.09;5025869;28;24440;-76
2022/07/13 05:28:56;;;;;;;1.48;1.00;;;;;;;16.17;86.08;96519.31;5023622;28;24443;-75
2022/07/13 05:31:22;;;;;;;1.00;0.77;;;;;;;16.34;85.96;96518.06;5027836;28;24451;-76
2022/07/13 05:33:49;;;;;;;2.30;1.60;;;;;;;16.38;92.57;96526.50;5018435;28;24826;-76
2022/07/13 05:36:15;;;;;;;1.10;1.00;;;;;;;16.42;92.14;96522.72;5017436;28;24444;-76
2022/07/13 05:38:42;;;;;;;1.48;1.20;;;;;;;16.58;91.67;96511.97;5025750;28;24467;-75
2022/07/13 05:41:10;;;;;;;1.30;1.20;;;;;;;16.73;92.24;96518.66;5020138;28;24446;-75
2022/07/13 05:43:37;;;;;;;1.50;1.10;;;;;;;16.90;87.82;96520.84;5019789;28;24911;-75
2022/07/13 05:46:04;;;;;;;1.67;1.00;;;;;;;17.11;84.68;96521.00;5024534;28;24498;-76
2022/07/13 05:48:31;;;;;;;1.27;1.00;;;;;;;17.22;82.37;96520.16;5030684;28;24546;-76
2022/07/13 05:50:57;;;;;;;6.75;1.13;;;;;;;17.35;80.50;96522.66;5028607;28;24443;-76
2022/07/13 05:53:24;;;;;;;1.42;1.13;;;;;;;17.22;79.91;96524.56;5021572;28;24440;-76
2022/07/13 05:55:50;;;;;;;1.92;1.33;;;;;;;17.25;80.10;96524.34;5026571;28;24458;-76
2022/07/13 05:58:18;;;;;;;1.40;1.30;;;;;;;17.12;80.64;96533.13;5032365;28;24447;-76
2022/07/13 06:00:45;;;;;;;3.90;1.45;;;;;;;17.27;80.59;96525.03;5019337;28;24441;-76
2022/07/13 06:03:11;;;;;;;1.90;1.20;;;;;;;17.55;80.51;96528.97;5022727;28;24977;-76
2022/07/13 06:05:38;;;;;;;2.40;1.20;;;;;;;17.59;78.74;96525.97;5029991;28;24475;-76
2022/07/13 06:08:05;;;;;;;3.30;1.60;;;;;;;17.85;79.33;96533.59;5024435;28;25039;-75
2022/07/13 06:10:31;;;;;;;3.83;1.23;;;;;;;18.02;76.89;96527.84;5020613;28;24444;-75
2022/07/13 06:12:57;;;;;;;3.08;1.50;;;;;;;18.01;76.94;96525.31;5023499;28;24443;-75
2022/07/13 06:15:25;;;;;;;1.75;1.13;;;;;;;18.00;77.00;96524.50;5024901;28;25799;-75
2022/07/13 06:17:52;;;;;;;1.58;1.05;;;;;;;18.03;76.88;96528.66;5024527;28;24487;-75
2022/07/13 06:20:18;;;;;;;2.70;1.33;;;;;;;18.30;75.84;96521.16;5018607;28;24428;-75
2022/07/13 06:23:09;;;;;;;1.60;1.10;;;;;;;18.38;75.87;96525.78;5022738;28;24467;-75
2022/07/13 06:25:32;;;;;;;5.35;1.35;;;;;;;18.54;75.59;96523.56;5020425;28;24969;-75
2022/07/13 06:27:58;;;;;;;2.25;1.20;;;;;;;18.74;73.74;96518.50;5020973;28;25228;-76
2022/07/13 06:30:26;;;;;;;2.28;1.20;;;;;;;18.81;73.16;96523.09;5028077;28;24443;-76
2022/07/13 06:32:53;;;;;;;1.73;0.90;;;;;;;19.01;72.15;96523.19;5026972;28;24432;-75
2022/07/13 06:35:19;;;;;;;1.58;1.00;;;;;;;19.27;71.70;96518.34;5027034;28;24436;-76
2022/07/13 06:37:46;;;;;;;1.38;0.90;;;;;;;19.43;70.91;96516.09;5013079;28;24444;-76
2022/07/13 06:40:13;;;;;;;2.42;0.93;;;;;;;19.61;68.94;96512.81;5022625;28;24443;-76
2022/07/13 06:42:39;;;;;;;1.55;0.90;;;;;;;19.82;70.14;96509.16;5027843;28;24456;-76
2022/07/13 06:45:06;;;;;;;0.98;0.60;;;;;;;19.79;67.80;96509.41;5021685;28;24436;-76
2022/07/13 06:47:34;;;;;;;1.35;1.05;;;;;;;19.98;68.77;96511.25;5023601;28;24959;-75
2022/07/13 06:50:00;;;;;;;1.00;0.70;;;;;;;20.23;68.52;96514.34;5029147;28;25041;-75
2022/07/13 06:52:27;;;;;;;1.20;0.77;;;;;;;20.45;64.62;96513.22;5025388;28;24440;-76
2022/07/13 06:54:53;;;;;;;1.42;0.80;;;;;;;20.60;62.75;96517.13;5025877;28;24820;-76
2022/07/13 06:57:20;;;;;;;3.10;0.90;;;;;;;20.68;63.31;96516.41;5028370;28;24432;-76
2022/07/13 06:59:46;;;;;;;1.80;0.70;;;;;;;20.70;63.84;96511.84;5029105;28;24432;-75
2022/07/13 07:02:13;;;;;;;1.13;0.70;;;;;;;20.83;61.62;96509.75;5029377;28;24462;-76
2022/07/13 07:04:43;;;;;;;1.90;0.75;;;;;;;20.91;61.69;96519.56;5022363;28;24435;-76
2022/07/13 07:07:09;;;;;;;1.48;0.80;;;;;;;21.01;60.12;96523.00;5026354;28;24423;-75
2022/07/13 07:09:36;;;;;;;2.60;0.97;;;;;;;21.14;59.49;96518.28;5031661;28;24473;-76
2022/07/13 07:12:02;;;;;;;3.25;0.93;;;;;;;21.24;59.49;96515.59;5028288;28;24428;-77
2022/07/13 07:14:32;;;;;;;0.57;0.47;;;;;;;21.31;58.92;96508.75;5029397;28;24965;-74
2022/07/13 07:16:59;;;;;;;0.90;0.73;;;;;;;21.32;59.95;96512.22;5030073;28;24442;-76
2022/07/13 07:19:25;;;;;;;1.77;0.85;;;;;;;21.58;61.87;96501.88;5025576;28;24424;-76
2022/07/13 07:21:54;;;;;;;1.67;0.80;;;;;;;21.84;60.14;96497.59;5022552;28;24970;-76
2022/07/13 07:24:21;;;;;;;4.22;1.42;;;;;;;22.18;59.48;96505.72;5022751;28;24536;-76
2022/07/13 07:26:48;;;;;;;7.88;2.08;;;;;;;22.43;57.79;96503.28;5023418;28;24440;-75
2022/07/13 07:29:14;;;;;;;4.22;1.30;;;;;;;22.56;54.27;96508.19;5022494;28;24523;-76
2022/07/13 07:31:41;;;;;;;3.45;1.38;;;;;;;22.66;56.23;96508.94;5027998;28;24493;-75
2022/07/13 07:34:08;;;;;;;2.67;1.00;;;;;;;22.79;54.27;96506.72;5024601;28;24436;-76
2022/07/13 07:36:34;;;;;;;1.40;0.88;;;;;;;22.94;54.22;96517.56;5028153;28;24582;-75
2022/07/13 07:39:02;;;;;;;1.02;0.65;;;;;;;23.06;51.43;96513.69;5025026;28;24436;-75
2022/07/13 07:41:28;;;;;;;1.48;0.60;;;;;;;23.18;49.11;96506.34;5028190;28;24443;-75
2022/07/13 07:43:55;;;;;;;3.67;0.80;;;;;;;23.12;48.63;96514.88;5025837;28;24459;-76
2022/07/13 07:46:21;;;;;;;1.45;0.70;;;;;;;23.18;48.74;96503.72;5028948;28;24432;-75
2022/07/13 07:48:48;;;;;;;2.30;0.57;;;;;;;23.08;48.72;96508.25;5024130;28;24432;-76
2022/07/13 07:51:15;;;;;;;1.58;0.80;;;;;;;22.99;49.39;96503.91;5019953;28;24833;-76
2022/07/13 07:53:41;;;;;;;3.90;1.00;;;;;;;22.99;50.50;96502.09;5024828;28;24432;-76
2022/07/13 07:56:09;;;;;;;2.15;0.75;;;;;;;23.11;50.58;96495.56;5019623;28;24436;-76
2022/07/13 07:58:35;;;;;;;2.60;0.80;;;;;;;23.14;50.64;96499.72;5026373;28;24428;-75
2022/07/13 08:01:02;;;;;;;1.55;0.60;;;;;;;23.17;49.23;96496.75;5018569;28;24973;-76
2022/07/13 08:03:28;;;;;;;0.68;0.50;;;;;;;23.23;50.16;96501.41;5027800;28;24459;-75
2022/07/13 08:05:57;;;;;;;1.73;0.60;;;;;;;23.30;51.62;96496.31;5018366;28;24436;-76
2022/07/13 08:08:23;;;;;;;1.13;0.68;;;;;;;23.43;48.88;96496.69;5026053;28;24439;-76
2022/07/13 08:10:50;;;;;;;4.47;0.60;;;;;;;23.50;48.19;96496.91;5018446;28;24857;-76
2022/07/13 08:13:18;;;;;;;2.75;0.80;;;;;;;23.49;47.55;96501.38;5029146;28;24430;-75
2022/07/13 08:15:44;;;;;;;1.85;0.57;;;;;;;23.51;47.81;96503.84;5027966;28;24436;-76
2022/07/13 08:18:11;;;;;;;2.45;0.60;;;;;;;23.70;46.16;96502.81;5025787;28;24993;-76
2022/07/13 08:20:37;;;;;;;0.85;0.60;;;;;;;23.64;46.16;96493.66;5029099;28;24432;-75
2022/07/13 08:23:50;;;;;;;3.45;0.60;;;;;;;23.76;46.40;96496.88;5033300;28;24533;-76
2022/07/13 08:25:50;;;;;;;1.55;0.65;;;;;;;23.85;47.31;96495.91;5032070;28;24511;-76
2022/07/13 08:28:18;;;;;;;1.60;0.70;;;;;;;24.02;45.04;96492.31;5032310;28;24428;-77
2022/07/13 08:30:44;;;;;;;2.67;0.80;;;;;;;24.12;44.11;96489.53;5030781;28;24436;-76
2022/07/13 08:33:11;;;;;;;1.20;0.60;;;;;;;24.33;46.74;96494.34;5027631;28;24431;-76
2022/07/13 08:38:38;;;;;;;3.30;0.90;;;;;;;24.31;45.20;96497.16;5031990;28;24466;-76
2022/07/13 08:41:04;;;;;;;2.70;0.35;;;;;;;24.44;45.53;96488.78;5022264;28;24514;-76
2022/07/13 08:43:34;;;;;;;0.97;0.50;;;;;;;24.41;46.61;96493.56;5030423;28;24463;-76
2022/07/13 08:46:03;;;;;;;0.90;0.60;;;;;;;24.64;45.36;96483.97;5020706;28;24538;-76
2022/07/13 08:48:35;;;;;;;1.88;0.60;;;;;;;24.58;44.10;96489.91;5030585;28;24431;-76
2022/07/13 08:51:03;;;;;;;1.52;0.57;;;;;;;24.61;44.49;96492.22;5021133;28;24440;-76
2022/07/13 08:53:30;;;;;;;2.22;0.70;;;;;;;24.90;44.52;96482.94;5030115;28;24527;-76
2022/07/13 08:55:57;;;;;;;0.80;0.43;;;;;;;25.15;44.08;96481.09;5017794;28;24794;-80
2022/07/13 08:58:24;;;;;;;7.03;0.90;;;;;;;25.27;41.41;96482.38;5020116;28;24455;-77
2022/07/13 09:00:51;;;;;;;5.25;0.85;;;;;;;25.49;42.13;96479.00;5028204;28;24553;-73
2022/07/13 09:03:18;;;;;;;4.82;0.85;;;;;;;25.64;41.48;96473.78;5032594;28;24455;-75
2022/07/13 09:05:45;;;;;;;1.20;0.57;;;;;;;25.71;40.23;96479.25;5031219;28;25015;-75
2022/07/13 09:08:13;;;;;;;1.23;0.67;;;;;;;25.99;40.01;96485.75;5033514;28;24447;-75
2022/07/13 09:10:53;;;;;;;1.20;0.60;;;;;;;26.18;38.92;96476.50;5029520;28;24446;-75
2022/07/13 09:13:34;;;;;;;2.67;0.50;;;;;;;26.36;38.90;96483.34;5033800;28;24436;-75
2022/07/13 09:16:15;;;;;;;6.20;0.65;;;;;;;26.52;38.86;96483.25;5030190;28;24502;-76
2022/07/13 09:18:42;;;;;;;4.90;0.80;;;;;;;26.81;38.43;96489.63;5013378;28;24439;-74
2022/07/13 09:21:09;;;;;;;5.40;0.55;;;;;;;26.81;37.35;96485.19;5026639;28;24432;-75
2022/07/13 09:23:35;;;;;;;1.33;0.70;;;;;;;27.20;38.21;96490.28;5022598;28;25073;-74
2022/07/13 09:26:02;;;;;;;1.88;0.77;;;;;;;27.43;34.39;96486.72;5022452;28;24790;-74
2022/07/13 09:28:29;;;;;;;2.40;0.65;;;;;;;27.61;32.47;96489.81;5029971;28;24451;-75
2022/07/13 09:31:00;;;;;;;0.77;0.47;;;;;;;27.93;31.66;96482.47;5021945;28;25108;-76
2022/07/13 09:33:36;;;;;;;1.90;0.50;;;;;;;28.14;34.78;96490.47;5030370;28;24522;-75
2022/07/13 09:36:10;;;;;;;2.65;0.43;;;;;;;28.33;32.21;96488.19;5031808;28;24446;-75
2022/07/13 09:38:38;;;;;;;1.65;0.70;;;;;;;27.67;32.23;96483.75;5029057;28;24434;-75
2022/07/13 09:41:19;;;;;;;3.53;0.60;;;;;;;28.04;33.04;96479.31;5026638;28;24878;-76
2022/07/13 09:46:50;;;;;;;1.77;0.65;;;;;;;28.22;29.01;96482.38;5024577;28;24832;-75
2022/07/13 09:49:18;;;;;;;2.10;0.67;;;;;;;28.13;28.97;96482.66;5027282;28;24493;-75
2022/07/13 09:51:45;;;;;;;2.22;0.85;;;;;;;28.60;30.33;96484.81;5031388;28;24795;-75
2022/07/13 09:54:13;;;;;;;2.35;0.70;;;;;;;28.13;29.44;96482.66;5027564;28;24996;-74
2022/07/13 09:56:44;;;;;;;2.05;0.65;;;;;;;27.65;31.48;96474.31;5030282;28;24446;-75
2022/07/13 09:59:11;;;;;;;1.38;0.45;;;;;;;27.79;30.49;96481.47;5027754;28;24438;-74
2022/07/13 10:01:38;;;;;;;1.13;0.47;;;;;;;28.38;33.47;96480.50;5033933;28;24438;-74
2022/07/13 10:04:05;;;;;;;1.05;0.45;;;;;;;28.61;29.32;96481.13;5041746;28;24450;-74
2022/07/13 10:06:33;;;;;;;1.90;0.60;;;;;;;28.72;30.34;96478.94;5026927;28;24435;-74
2022/07/13 10:08:59;;;;;;;5.10;0.57;;;;;;;28.82;30.54;96482.13;5029648;28;24810;-74
2022/07/13 10:11:26;;;;;;;4.22;0.77;;;;;;;28.96;27.94;96483.88;5025653;28;24435;-74
2022/07/13 10:13:53;;;;;;;1.10;0.45;;;;;;;28.78;28.39;96481.69;5025715;28;24527;-74
2022/07/13 10:16:19;;;;;;;4.20;0.60;;;;;;;29.07;28.77;96486.03;5027091;28;24988;-74
2022/07/13 10:18:47;;;;;;;2.33;0.50;;;;;;;29.56;27.74;96477.06;5029729;28;24480;-74
2022/07/13 10:21:19;;;;;;;1.30;0.40;;;;;;;29.70;28.96;96474.47;5024990;28;24445;-74
2022/07/13 10:23:47;;;;;;;1.55;0.50;;;;;;;29.67;27.05;96481.06;5029716;28;24466;-74
2022/07/13 10:26:21;;;;;;;2.47;0.80;;;;;;;29.10;27.40;96479.47;5027423;28;24486;-74
2022/07/13 10:29:04;;;;;;;2.10;0.60;;;;;;;28.80;30.55;96484.13;5029952;28;24973;-74
2022/07/13 10:31:33;;;;;;;2.50;0.82;;;;;;;29.58;30.58;96483.06;5026442;28;24462;-74
2022/07/13 10:34:00;;;;;;;3.60;0.60;;;;;;;29.53;26.31;96485.47;5024594;28;24459;-74
2022/07/13 10:36:56;;;;;;;2.45;0.50;;;;;;;28.93;25.56;96477.06;5025384;28;24962;-74
2022/07/13 10:39:25;;;;;;;0.50;0.40;;;;;;;28.44;26.25;96479.72;5021689;28;24436;-74
2022/07/13 10:42:00;;;;;;;1.60;0.60;;;;;;;28.45;26.91;96470.72;5027219;28;24549;-74
2022/07/13 10:44:32;;;;;;;0.70;0.50;;;;;;;28.66;27.37;96473.38;5024265;28;24563;-74
2022/07/13 10:46:59;;;;;;;1.50;0.57;;;;;;;28.82;28.92;96460.78;5027609;28;24441;-74
2022/07/13 10:49:37;;;;;;;2.20;0.50;;;;;;;28.79;25.92;96466.50;5025729;28;24443;-74
2022/07/13 10:52:50;;;;;;;2.77;0.53;;;;;;;29.05;25.14;96458.72;5022326;28;24446;-74
2022/07/13 10:55:34;;;;;;;2.58;0.55;;;;;;;28.93;25.53;96458.41;5031020;28;24470;-74
2022/07/13 10:58:40;;;;;;;1.15;0.73;;;;;;;29.16;25.48;96454.69;5031043;28;24565;-74
2022/07/13 11:01:44;;;;;;;1.02;0.40;;;;;;;29.01;25.87;96454.81;5024587;28;24435;-75
2022/07/13 11:04:14;;;;;;;3.45;0.47;;;;;;;29.38;25.90;96450.91;5025354;28;25015;-74
2022/07/13 11:06:41;;;;;;;1.02;0.40;;;;;;;29.73;24.96;96448.22;5021627;28;24989;-74
2022/07/13 11:09:09;;;;;;;2.80;0.52;;;;;;;29.54;23.76;96454.25;5024085;28;24455;-74
2022/07/13 11:11:44;;;;;;;0.63;0.40;;;;;;;29.49;24.31;96446.84;5029477;28;24436;-74
2022/07/13 11:14:47;;;;;;;1.25;0.30;;;;;;;29.60;24.37;96442.84;5019165;28;24462;-74
2022/07/13 11:17:14;;;;;;;1.85;0.38;;;;;;;29.17;23.69;96441.13;5021161;28;24944;-74
2022/07/13 11:20:09;;;;;;;1.80;0.40;;;;;;;29.26;24.73;96436.50;5027506;28;24451;-74
2022/07/13 11:25:41;;;;;;;0.63;0.30;;;;;;;29.90;25.65;96438.81;4997427;28;24501;-74
2022/07/13 11:28:26;;;;;;;1.10;0.40;;;;;;;30.27;23.86;96439.34;5024465;28;24454;-74
2022/07/13 11:30:54;;;;;;;0.82;0.43;;;;;;;30.49;23.91;96433.81;5016576;28;24962;-74
2022/07/13 11:33:21;;;;;;;3.37;0.67;;;;;;;30.71;23.21;96432.59;5021670;28;24521;-74
2022/07/13 11:35:48;;;;;;;3.08;0.47;;;;;;;30.20;22.72;96433.16;5028654;28;24432;-75
2022/07/13 11:38:16;;;;;;;2.38;0.38;;;;;;;30.37;22.85;96441.63;5016658;28;24436;-74
2022/07/13 11:40:44;;;;;;;0.20;0.20;;;;;;;30.41;23.46;96434.00;5021636;28;24498;-74
2022/07/13 11:43:10;;;;;;;1.20;0.50;;;;;;;30.25;22.30;96440.56;5025301;28;24431;-74
2022/07/13 11:45:40;;;;;;;0.77;0.40;;;;;;;29.80;22.04;96424.22;5027793;28;24435;-74
2022/07/13 11:48:12;;;;;;;2.47;0.47;;;;;;;29.79;21.70;96417.22;5018159;28;24855;-74